Time;durP1;ratioP1;P1;durP2;ratioP2;P2;SDS_P1;SDS_P2;PMS_P1;PMS_P2;Temp;Humidity;BMP_temperature;BMP_pressure;BME280_temperature;BME280_humidity;BME280_pressure;Samples;Min_cycle;Max_cycle;Signal;HPM_P1;HPM_P2
2022/05/17 00:00:44;;;;;;;22.20;7.30;;;15.50;99.90;;;;;;5025616;28;20076;-76
2022/05/17 00:03:10;;;;;;;16.35;6.78;;;15.50;99.90;;;;;;5023897;28;20068;-76
2022/05/17 00:05:38;;;;;;;19.33;7.15;;;15.50;99.90;;;;;;5027403;28;21920;-76
2022/05/17 00:08:04;;;;;;;23.75;6.57;;;15.50;99.90;;;;;;5022958;28;20057;-76
2022/05/17 00:10:30;;;;;;;18.75;7.32;;;15.40;99.90;;;;;;5028845;28;20046;-76
2022/05/17 00:12:56;;;;;;;19.67;7.22;;;15.40;99.90;;;;;;5027955;28;20045;-76
2022/05/17 00:15:22;;;;;;;20.00;7.30;;;15.40;99.90;;;;;;5025589;28;20045;-76
2022/05/17 00:17:48;;;;;;;23.92;7.47;;;15.30;99.90;;;;;;5028768;28;20091;-76
2022/05/17 00:20:15;;;;;;;20.33;7.68;;;15.30;99.90;;;;;;5028647;28;20049;-76
2022/05/17 00:22:41;;;;;;;14.73;6.80;;;15.30;99.90;;;;;;5023515;28;20056;-76
2022/05/17 00:25:08;;;;;;;19.95;7.55;;;15.20;99.90;;;;;;5023307;28;20045;-76
2022/05/17 00:27:34;;;;;;;26.55;7.95;;;15.20;99.90;;;;;;5028211;28;20053;-76
2022/05/17 00:29:59;;;;;;;15.73;7.03;;;15.20;99.90;;;;;;5027209;28;20045;-76
2022/05/17 00:32:25;;;;;;;23.13;7.55;;;15.10;99.90;;;;;;5030023;28;20755;-76
2022/05/17 00:34:55;;;;;;;18.77;6.65;;;15.10;99.90;;;;;;5025856;28;20508;-76
2022/05/17 00:37:20;;;;;;;17.05;6.78;;;15.10;99.90;;;;;;5027557;28;20037;-76
2022/05/17 00:39:48;;;;;;;16.95;6.68;;;15.10;99.90;;;;;;5026414;28;20610;-76
2022/05/17 00:42:14;;;;;;;18.63;6.55;;;15.10;99.90;;;;;;5027524;28;20049;-76
2022/05/17 00:44:43;;;;;;;19.08;6.97;;;15.10;99.90;;;;;;5024201;28;20069;-76
2022/05/17 00:47:30;;;;;;;20.65;6.40;;;15.10;99.90;;;;;;5026073;28;20045;-76
2022/05/17 00:50:03;;;;;;;16.42;6.90;;;15.10;99.90;;;;;;5028110;28;20048;-76
2022/05/17 00:52:53;;;;;;;21.90;7.15;;;15.00;99.90;;;;;;5022104;28;20100;-76
2022/05/17 00:55:32;;;;;;;15.98;6.68;;;15.00;99.90;;;;;;5027041;28;20489;-76
2022/05/17 00:58:13;;;;;;;18.70;6.53;;;15.00;99.90;;;;;;5025306;28;20629;-77
2022/05/17 01:01:02;;;;;;;18.63;6.43;;;15.00;99.90;;;;;;5023291;28;20049;-76
2022/05/17 01:03:33;;;;;;;18.55;6.32;;;15.00;99.90;;;;;;5024246;28;20103;-76
2022/05/17 01:06:02;;;;;;;19.55;6.15;;;15.00;99.90;;;;;;5022170;28;20493;-76
2022/05/17 01:08:28;;;;;;;21.65;7.10;;;15.00;99.90;;;;;;5025888;28;20100;-76
2022/05/17 01:10:54;;;;;;;22.33;7.97;;;14.90;99.90;;;;;;5024222;28;20042;-76
2022/05/17 01:16:07;;;;;;;19.88;7.32;;;14.90;99.90;;;;;;5028174;28;20053;-76
2022/05/17 01:18:34;;;;;;;16.55;6.85;;;14.90;99.90;;;;;;5027624;28;20057;-76
2022/05/17 01:21:02;;;;;;;21.75;7.57;;;14.80;99.90;;;;;;5026357;28;20048;-76
2022/05/17 01:23:28;;;;;;;19.08;7.28;;;14.80;99.90;;;;;;5016565;28;20611;-76
2022/05/17 01:25:54;;;;;;;17.52;6.47;;;14.80;99.90;;;;;;5019001;28;20065;-76
2022/05/17 01:28:24;;;;;;;22.25;6.88;;;14.70;99.90;;;;;;5026579;28;20119;-76
2022/05/17 01:30:50;;;;;;;20.30;7.43;;;14.70;99.90;;;;;;5025680;28;20176;-76
2022/05/17 01:33:18;;;;;;;15.38;6.15;;;14.70;99.90;;;;;;5021994;28;20118;-77
2022/05/17 01:35:44;;;;;;;20.13;6.50;;;14.70;99.90;;;;;;5023453;28;20048;-76
2022/05/17 01:38:10;;;;;;;20.48;6.45;;;14.70;99.90;;;;;;5027769;28;20049;-77
2022/05/17 01:40:36;;;;;;;20.38;7.20;;;14.60;99.90;;;;;;5020025;28;20045;-77
2022/05/17 01:43:02;;;;;;;18.45;7.15;;;14.60;99.90;;;;;;5027585;28;20099;-77
2022/05/17 01:45:28;;;;;;;18.45;7.32;;;14.60;99.90;;;;;;5024133;28;20120;-77
2022/05/17 01:47:53;;;;;;;14.85;6.15;;;14.50;99.90;;;;;;5024789;28;20041;-77
2022/05/17 01:50:19;;;;;;;17.45;6.65;;;14.40;99.90;;;;;;5031676;28;20045;-77
2022/05/17 01:52:45;;;;;;;14.23;6.55;;;14.50;99.90;;;;;;5028210;28;20512;-77
2022/05/17 01:55:11;;;;;;;15.73;6.50;;;14.50;99.90;;;;;;5026114;28;20492;-77
2022/05/17 01:57:37;;;;;;;17.98;6.07;;;14.40;99.90;;;;;;5053660;28;20092;-77
2022/05/17 02:00:05;;;;;;;18.20;6.65;;;14.50;99.90;;;;;;5031405;28;20041;-77
2022/05/17 02:02:32;;;;;;;19.70;7.13;;;14.40;99.90;;;;;;5025874;28;20500;-77
2022/05/17 02:04:58;;;;;;;17.10;6.15;;;14.40;99.90;;;;;;5027849;28;20038;-77
2022/05/17 02:07:23;;;;;;;16.05;7.22;;;14.40;99.90;;;;;;5025287;28;20057;-77
2022/05/17 02:09:49;;;;;;;19.38;6.55;;;14.30;99.90;;;;;;5024344;28;20085;-77
2022/05/17 02:12:15;;;;;;;15.88;7.05;;;14.30;99.90;;;;;;5029474;28;20046;-77
2022/05/17 02:14:41;;;;;;;14.13;6.40;;;14.30;99.90;;;;;;5029732;28;20094;-77
2022/05/17 02:17:06;;;;;;;19.77;6.22;;;14.30;99.90;;;;;;5029779;28;20049;-77
2022/05/17 02:19:32;;;;;;;14.23;6.25;;;14.20;99.90;;;;;;5029460;28;20052;-77
2022/05/17 02:22:01;;;;;;;20.75;5.60;;;14.20;99.90;;;;;;5027160;28;20053;-77
2022/05/17 02:24:27;;;;;;;20.10;6.50;;;14.20;99.90;;;;;;5019379;28;20045;-77
2022/05/17 02:26:54;;;;;;;17.48;6.53;;;14.20;99.90;;;;;;5027344;28;20041;-77
2022/05/17 02:29:20;;;;;;;15.10;6.00;;;14.10;99.90;;;;;;5030881;28;20403;-77
2022/05/17 02:31:45;;;;;;;13.57;6.00;;;14.10;99.90;;;;;;5027370;28;20037;-77
2022/05/17 02:34:11;;;;;;;15.63;6.47;;;14.10;99.90;;;;;;5029804;28;20083;-77
2022/05/17 02:36:36;;;;;;;26.52;6.53;;;14.10;99.90;;;;;;5021471;28;20140;-77
2022/05/17 02:39:02;;;;;;;21.38;6.57;;;14.10;99.90;;;;;;5027528;28;20079;-77
2022/05/17 02:41:28;;;;;;;15.25;6.32;;;14.10;99.90;;;;;;5027956;28;20049;-77
2022/05/17 02:43:53;;;;;;;20.25;6.78;;;14.10;99.90;;;;;;5027378;28;20053;-77
2022/05/17 02:46:19;;;;;;;16.30;6.57;;;14.10;99.90;;;;;;5027937;28;20049;-77
2022/05/17 02:48:45;;;;;;;19.52;7.20;;;14.00;99.90;;;;;;5026926;28;20057;-77
2022/05/17 02:51:15;;;;;;;18.02;6.63;;;14.10;99.90;;;;;;5028721;28;20037;-77
2022/05/17 02:53:41;;;;;;;18.63;6.70;;;14.00;99.90;;;;;;5024673;28;20045;-77
2022/05/17 02:56:07;;;;;;;17.65;5.65;;;14.00;99.90;;;;;;5025629;28;20041;-77
2022/05/17 02:58:33;;;;;;;17.27;6.15;;;13.90;99.90;;;;;;5029930;28;20408;-77
2022/05/17 03:00:59;;;;;;;20.38;6.57;;;13.90;99.90;;;;;;5026579;28;20045;-77
2022/05/17 03:03:25;;;;;;;18.17;7.82;;;13.90;99.90;;;;;;5029558;28;20092;-77
2022/05/17 03:05:50;;;;;;;15.95;6.57;;;13.80;99.90;;;;;;5025659;28;20059;-77
2022/05/17 03:08:16;;;;;;;17.02;6.88;;;13.90;99.90;;;;;;5030552;28;20404;-77
2022/05/17 03:10:42;;;;;;;19.35;7.22;;;13.90;99.90;;;;;;5030368;28;20053;-77
2022/05/17 03:13:12;;;;;;;21.05;7.28;;;13.80;99.90;;;;;;5022818;28;20095;-77
2022/05/17 03:15:38;;;;;;;17.15;7.22;;;13.80;99.90;;;;;;5027395;28;20107;-77
2022/05/17 03:18:04;;;;;;;17.23;7.88;;;13.80;99.90;;;;;;5027931;28;20389;-77
2022/05/17 03:20:29;;;;;;;16.88;7.18;;;13.80;99.90;;;;;;5031348;28;20431;-77
2022/05/17 03:22:55;;;;;;;20.02;7.78;;;13.80;99.90;;;;;;5022343;28;20044;-77
2022/05/17 03:25:23;;;;;;;20.48;7.22;;;13.70;99.90;;;;;;5029218;28;20429;-77
2022/05/17 03:27:49;;;;;;;20.77;8.05;;;13.80;99.90;;;;;;5031193;28;20041;-77
2022/05/17 03:30:15;;;;;;;22.73;8.00;;;13.70;99.90;;;;;;5023362;28;20084;-77
2022/05/17 03:32:41;;;;;;;17.27;7.45;;;13.70;99.90;;;;;;5027020;28;20481;-77
2022/05/17 03:35:07;;;;;;;20.63;8.23;;;13.70;99.90;;;;;;5028466;28;20143;-77
2022/05/17 03:37:32;;;;;;;19.23;7.80;;;13.70;99.90;;;;;;5026022;28;20049;-77
2022/05/17 03:39:58;;;;;;;22.00;8.25;;;13.70;99.90;;;;;;5027678;28;20068;-77
2022/05/17 03:42:26;;;;;;;19.00;7.60;;;13.60;99.90;;;;;;5027615;28;20087;-77
2022/05/17 03:44:51;;;;;;;21.33;8.20;;;13.60;99.90;;;;;;5027764;28;20049;-77
2022/05/17 03:47:17;;;;;;;16.85;7.18;;;13.60;99.90;;;;;;5027960;28;20501;-77
2022/05/17 03:49:43;;;;;;;18.58;7.07;;;13.60;99.90;;;;;;5028277;28;20436;-77
2022/05/17 03:52:09;;;;;;;16.10;7.93;;;13.60;99.90;;;;;;5028665;28;20073;-78
2022/05/17 03:54:37;;;;;;;18.25;7.40;;;13.50;99.90;;;;;;5027400;28;20080;-77
2022/05/17 03:57:04;;;;;;;30.13;8.35;;;13.60;99.90;;;;;;5022710;28;20758;-77
2022/05/17 03:59:29;;;;;;;21.30;9.35;;;13.60;99.90;;;;;;5027864;28;20140;-77
2022/05/17 04:01:55;;;;;;;21.85;9.10;;;13.50;99.90;;;;;;5025432;28;20132;-77
2022/05/17 04:04:21;;;;;;;16.73;8.40;;;13.50;99.90;;;;;;5028859;28;20125;-77
2022/05/17 04:06:46;;;;;;;18.05;8.10;;;13.50;99.90;;;;;;5027578;28;20046;-77
2022/05/17 04:09:12;;;;;;;19.30;8.73;;;13.50;99.90;;;;;;5026134;28;20062;-77
2022/05/17 04:11:38;;;;;;;25.95;9.05;;;13.50;99.90;;;;;;5026288;28;20042;-77
2022/05/17 04:14:04;;;;;;;19.60;8.07;;;13.50;99.90;;;;;;5026309;28;20496;-78
2022/05/17 04:16:35;;;;;;;17.88;8.60;;;13.60;99.90;;;;;;5028241;28;20081;-77
2022/05/17 04:19:02;;;;;;;21.05;8.45;;;13.60;99.90;;;;;;5021190;28;20496;-77
2022/05/17 04:21:29;;;;;;;23.15;8.23;;;13.60;99.90;;;;;;5029015;28;20148;-77
2022/05/17 04:23:55;;;;;;;18.30;8.48;;;13.60;99.90;;;;;;5022120;28;20132;-76
2022/05/17 04:26:21;;;;;;;20.50;9.23;;;13.60;99.90;;;;;;5026566;28;20521;-77
2022/05/17 04:28:46;;;;;;;23.23;8.50;;;13.70;99.90;;;;;;5026887;28;20103;-77
2022/05/17 04:31:12;;;;;;;24.58;9.73;;;13.80;99.90;;;;;;5029276;28;20060;-77
2022/05/17 04:33:38;;;;;;;20.70;8.38;;;13.80;99.90;;;;;;5028040;28;20046;-77
2022/05/17 04:36:04;;;;;;;20.88;7.97;;;13.90;99.90;;;;;;5024533;28;20045;-76
2022/05/17 04:38:30;;;;;;;17.65;7.95;;;13.90;99.90;;;;;;5022996;28;20045;-76
2022/05/17 04:40:56;;;;;;;15.90;7.25;;;14.00;99.90;;;;;;5025204;28;20044;-77
2022/05/17 04:43:21;;;;;;;21.08;8.82;;;14.10;99.90;;;;;;5025192;28;20045;-77
2022/05/17 04:45:47;;;;;;;22.52;8.18;;;14.20;99.90;;;;;;5026015;28;20051;-77
2022/05/17 04:48:13;;;;;;;18.67;7.88;;;14.20;99.90;;;;;;5024455;28;20045;-77
2022/05/17 04:50:39;;;;;;;18.02;7.95;;;14.50;99.90;;;;;;5027652;28;20370;-76
2022/05/17 04:53:05;;;;;;;15.90;7.72;;;14.40;99.90;;;;;;5028362;28;20455;-77
2022/05/17 04:55:31;;;;;;;18.05;7.68;;;14.50;99.90;;;;;;5039076;28;20087;-77
2022/05/17 04:58:00;;;;;;;22.15;7.88;;;14.60;99.90;;;;;;5044258;28;20053;-77
2022/05/17 05:00:26;;;;;;;22.45;6.68;;;14.60;99.90;;;;;;5029818;28;20037;-77
2022/05/17 05:02:53;;;;;;;14.30;6.22;;;14.70;99.90;;;;;;5024381;28;20052;-77
2022/05/17 05:05:19;;;;;;;17.92;6.95;;;14.70;99.90;;;;;;5023610;28;20049;-77
2022/05/17 05:07:45;;;;;;;13.23;5.82;;;14.70;99.90;;;;;;5024280;28;20064;-75
2022/05/17 05:10:12;;;;;;;16.98;6.53;;;14.80;99.90;;;;;;5024987;28;20727;-75
2022/05/17 05:12:38;;;;;;;19.50;7.25;;;14.70;99.90;;;;;;5026891;28;20742;-75
2022/05/17 05:15:04;;;;;;;16.73;6.60;;;14.70;99.90;;;;;;5024519;28;20046;-76
2022/05/17 05:17:32;;;;;;;15.88;6.55;;;14.70;99.90;;;;;;5022627;28;20037;-79
2022/05/17 05:19:58;;;;;;;16.85;6.32;;;14.70;99.90;;;;;;5029243;28;20045;-78
2022/05/17 05:22:25;;;;;;;16.85;6.47;;;14.70;99.90;;;;;;5030953;28;20042;-77
2022/05/17 05:24:51;;;;;;;15.75;6.50;;;14.70;99.90;;;;;;5023889;28;20056;-78
2022/05/17 05:27:17;;;;;;;21.27;6.25;;;14.70;99.90;;;;;;5026319;28;20133;-79
2022/05/17 05:29:43;;;;;;;15.85;6.20;;;14.80;99.90;;;;;;5027205;28;20068;-78
2022/05/17 05:32:09;;;;;;;18.20;6.53;;;14.70;99.90;;;;;;5028481;28;20459;-76
2022/05/17 05:34:34;;;;;;;18.40;6.65;;;14.70;99.90;;;;;;5024353;28;20053;-77
2022/05/17 05:37:01;;;;;;;18.48;6.55;;;14.70;99.90;;;;;;5025842;28;20038;-77
2022/05/17 05:39:26;;;;;;;14.55;6.25;;;14.70;99.90;;;;;;5025158;28;20269;-77
2022/05/17 05:41:52;;;;;;;18.38;6.15;;;14.70;99.90;;;;;;5027337;28;20041;-77
2022/05/17 05:44:19;;;;;;;20.33;7.05;;;14.70;99.90;;;;;;5025974;28;20045;-79
2022/05/17 05:46:45;;;;;;;13.90;5.63;;;14.70;99.90;;;;;;5024594;28;20046;-78
2022/05/17 05:49:10;;;;;;;15.73;6.78;;;14.70;99.90;;;;;;5026418;28;20420;-77
2022/05/17 05:51:36;;;;;;;17.88;6.53;;;14.80;99.90;;;;;;5024650;28;20066;-78
2022/05/17 05:54:02;;;;;;;19.40;6.70;;;14.90;99.90;;;;;;5022341;28;20689;-78
2022/05/17 05:56:28;;;;;;;17.02;6.03;;;14.90;99.90;;;;;;5024569;28;20776;-77
2022/05/17 05:58:54;;;;;;;15.38;5.90;;;15.00;99.90;;;;;;5023734;28;20057;-78
2022/05/17 06:01:20;;;;;;;21.73;6.47;;;15.20;99.90;;;;;;5022286;28;20132;-75
2022/05/17 06:03:45;;;;;;;15.75;5.78;;;15.20;99.90;;;;;;5023903;28;20049;-77
2022/05/17 06:06:11;;;;;;;16.67;5.97;;;15.20;99.90;;;;;;5027989;28;20449;-78
2022/05/17 06:08:37;;;;;;;15.10;5.70;;;15.30;99.90;;;;;;5023184;28;20056;-78
2022/05/17 06:11:03;;;;;;;20.10;6.80;;;15.40;99.90;;;;;;5026724;28;20131;-78
2022/05/17 06:13:29;;;;;;;17.58;6.10;;;15.40;99.90;;;;;;5022830;28;20420;-78
2022/05/17 06:15:55;;;;;;;12.75;5.53;;;15.50;99.90;;;;;;5021955;28;20417;-79
2022/05/17 06:18:21;;;;;;;16.02;6.13;;;15.60;99.90;;;;;;5026249;28;20044;-80
2022/05/17 06:20:51;;;;;;;14.02;6.28;;;15.60;99.90;;;;;;5025408;28;20056;-81
2022/05/17 06:23:18;;;;;;;17.63;6.50;;;15.70;99.90;;;;;;5019895;28;20132;-80
2022/05/17 06:25:44;;;;;;;11.68;5.40;;;15.70;99.90;;;;;;5021228;28;20397;-78
2022/05/17 06:28:10;;;;;;;18.15;7.00;;;15.80;99.90;;;;;;5026057;28;20059;-78
2022/05/17 06:30:36;;;;;;;16.65;6.03;;;15.90;99.90;;;;;;4982984;28;1029919;-78
2022/05/17 06:33:02;;;;;;;15.80;5.82;;;15.90;99.90;;;;;;5035667;28;20095;-78
2022/05/17 06:35:28;;;;;;;16.48;5.00;;;15.90;99.90;;;;;;5025296;28;20045;-77
2022/05/17 06:37:53;;;;;;;17.10;6.00;;;16.00;99.90;;;;;;5027444;28;20048;-78
2022/05/17 06:40:19;;;;;;;17.23;5.60;;;16.00;99.90;;;;;;5029558;28;20049;-79
2022/05/17 06:42:45;;;;;;;21.15;6.10;;;16.10;99.90;;;;;;5027407;28;20033;-79
2022/05/17 06:45:11;;;;;;;16.10;5.78;;;16.20;99.90;;;;;;5031647;28;20098;-78
2022/05/17 06:47:38;;;;;;;17.25;6.35;;;16.20;99.90;;;;;;5051903;28;20041;-78
2022/05/17 06:50:05;;;;;;;17.10;5.50;;;16.30;99.90;;;;;;5024494;28;20088;-78
2022/05/17 06:52:31;;;;;;;15.52;5.60;;;16.30;99.90;;;;;;5032787;28;20041;-78
2022/05/17 06:54:56;;;;;;;12.35;5.35;;;16.40;99.90;;;;;;5032050;28;20045;-78
2022/05/17 06:57:22;;;;;;;13.82;5.25;;;16.40;99.90;;;;;;5030933;28;20160;-78
2022/05/17 06:59:48;;;;;;;13.88;6.28;;;16.50;99.90;;;;;;5031558;28;20045;-78
2022/05/17 07:02:13;;;;;;;12.40;4.38;;;16.50;99.90;;;;;;5026866;28;20088;-77
2022/05/17 07:04:39;;;;;;;12.73;5.05;;;16.50;99.90;;;;;;5037629;28;20041;-78
2022/05/17 07:07:06;;;;;;;11.77;5.50;;;16.50;99.90;;;;;;5030713;28;20084;-78
2022/05/17 07:09:33;;;;;;;14.75;4.95;;;16.60;99.90;;;;;;5028908;28;20068;-78
2022/05/17 07:14:42;;;;;;;16.43;5.73;;;16.90;99.90;;;;;;5029522;28;20171;-78
2022/05/17 07:17:15;;;;;;;15.85;5.70;;;17.20;99.90;;;;;;5027366;28;20531;-76
2022/05/17 07:19:41;;;;;;;14.48;6.25;;;17.40;99.90;;;;;;5027826;28;20124;-77
2022/05/17 07:22:07;;;;;;;19.58;5.07;;;17.70;99.90;;;;;;5027961;28;20443;-77
2022/05/17 07:24:33;;;;;;;14.57;4.95;;;17.90;99.90;;;;;;5024330;28;20041;-77
2022/05/17 07:27:00;;;;;;;14.30;4.75;;;18.10;99.90;;;;;;5023603;28;20050;-77
2022/05/17 07:29:29;;;;;;;16.02;5.05;;;18.30;99.90;;;;;;5028525;28;20128;-77
2022/05/17 07:31:55;;;;;;;14.73;5.07;;;18.40;99.90;;;;;;5029332;28;20053;-77
2022/05/17 07:34:21;;;;;;;16.08;5.13;;;18.60;99.90;;;;;;5046524;28;20052;-77
2022/05/17 07:36:47;;;;;;;14.40;4.90;;;18.70;99.90;;;;;;5030755;28;20045;-77
2022/05/17 07:39:13;;;;;;;11.65;5.10;;;18.80;99.90;;;;;;5030942;28;20503;-79
2022/05/17 07:41:41;;;;;;;13.80;4.68;;;18.90;99.90;;;;;;5021375;28;20041;-77
2022/05/17 07:44:07;;;;;;;15.68;6.40;;;19.00;99.90;;;;;;5029372;28;20124;-77
2022/05/17 07:46:36;;;;;;;17.73;5.63;;;19.00;99.90;;;;;;5028449;28;20052;-77
2022/05/17 07:49:02;;;;;;;10.27;5.03;;;19.20;99.90;;;;;;5023018;28;20053;-77
2022/05/17 07:51:27;;;;;;;12.68;4.43;;;19.20;99.90;;;;;;5026840;28;20053;-77
2022/05/17 07:53:54;;;;;;;13.25;4.88;;;19.30;99.90;;;;;;5027528;28;20053;-77
2022/05/17 07:56:20;;;;;;;10.60;4.25;;;19.40;99.90;;;;;;5028482;28;20053;-77
2022/05/17 07:58:45;;;;;;;11.85;4.18;;;19.50;99.90;;;;;;5022245;28;20042;-77
2022/05/17 08:01:12;;;;;;;16.35;4.97;;;19.60;99.90;;;;;;5029718;28;20055;-77
2022/05/17 08:03:38;;;;;;;15.15;5.15;;;19.70;99.90;;;;;;5025071;28;20046;-77
2022/05/17 08:06:03;;;;;;;16.42;5.18;;;19.70;99.90;;;;;;5026209;28;20041;-77
2022/05/17 08:08:29;;;;;;;11.65;4.43;;;19.70;99.90;;;;;;5030474;28;20834;-77
2022/05/17 08:10:54;;;;;;;11.07;4.30;;;19.80;99.90;;;;;;5027484;28;20049;-77
2022/05/17 08:13:21;;;;;;;12.38;5.00;;;19.90;99.90;;;;;;5015201;28;20095;-77
2022/05/17 08:15:50;;;;;;;13.35;4.78;;;20.10;99.90;;;;;;5029610;28;20049;-77
2022/05/17 08:18:17;;;;;;;14.00;5.03;;;20.10;99.90;;;;;;5030031;28;20046;-77
2022/05/17 08:20:43;;;;;;;14.73;4.22;;;20.20;99.90;;;;;;5016957;28;20130;-77
2022/05/17 08:23:09;;;;;;;12.55;4.78;;;20.20;99.90;;;;;;5016395;28;20616;-77
2022/05/17 08:28:19;;;;;;;15.30;4.30;;;20.30;99.90;;;;;;5028290;28;20049;-78
2022/05/17 08:30:47;;;;;;;11.60;3.90;;;20.30;99.90;;;;;;5017347;28;20080;-77
2022/05/17 08:33:18;;;;;;;12.82;4.47;;;20.40;99.90;;;;;;5023519;28;20041;-77
2022/05/17 08:35:53;;;;;;;14.38;4.05;;;20.50;99.90;;;;;;5033474;28;20037;-77
2022/05/17 08:38:24;;;;;;;12.20;3.72;;;20.60;99.90;;;;;;5020779;28;20520;-77
2022/05/17 08:41:11;;;;;;;9.60;3.53;;;20.70;99.90;;;;;;5025660;28;20495;-77
2022/05/17 08:43:57;;;;;;;13.98;4.38;;;20.80;99.90;;;;;;5027997;28;21387;-78
2022/05/17 08:46:31;;;;;;;10.77;3.45;;;20.90;99.90;;;;;;5024685;28;20053;-77
2022/05/17 08:49:05;;;;;;;;;;;21.00;99.90;;;;;;5029474;28;20216;-78
2022/05/17 08:51:53;;;;;;;13.70;3.60;;;21.10;99.90;;;;;;5030036;28;20679;-78
2022/05/17 08:54:24;;;;;;;14.13;3.83;;;21.20;99.90;;;;;;5028818;28;20053;-78
2022/05/17 08:57:13;;;;;;;10.90;3.22;;;21.30;99.90;;;;;;5022711;28;20070;-78
2022/05/17 08:59:41;;;;;;;11.20;3.17;;;21.30;99.90;;;;;;5006013;28;20099;-78
2022/05/17 09:02:16;;;;;;;10.85;2.70;;;21.30;99.90;;;;;;5021520;28;20054;-77
2022/05/17 09:04:50;;;;;;;10.70;2.55;;;21.30;99.90;;;;;;5018907;28;20414;-78
2022/05/17 09:07:24;;;;;;;10.02;2.50;;;21.30;99.90;;;;;;5018397;28;20046;-78
2022/05/17 09:09:58;;;;;;;8.18;1.88;;;21.30;99.90;;;;;;5023920;28;20073;-78
2022/05/17 09:12:28;;;;;;;;;;;21.30;99.90;;;;;;5022358;28;20120;-78
2022/05/17 09:14:59;;;;;;;10.93;2.40;;;21.30;99.90;;;;;;5023673;28;20012;-77
2022/05/17 09:17:26;;;;;;;13.40;3.13;;;21.30;99.90;;;;;;5018346;28;20073;-77
2022/05/17 09:19:53;;;;;;;9.50;2.50;;;21.30;99.90;;;;;;5028698;28;20056;-78
2022/05/17 09:22:20;;;;;;;7.80;2.63;;;21.40;99.90;;;;;;5030027;28;20405;-77
2022/05/17 09:25:12;;;;;;;9.38;2.67;;;21.50;99.90;;;;;;5020864;28;20045;-77
2022/05/17 09:27:40;;;;;;;9.63;2.35;;;21.60;99.90;;;;;;5013682;28;20065;-77
2022/05/17 09:30:26;;;;;;;10.13;2.85;;;21.80;99.90;;;;;;5020758;28;20574;-77
2022/05/17 09:33:21;;;;;;;9.77;2.72;;;21.90;99.90;;;;;;5027581;28;20060;-78
2022/05/17 09:36:00;;;;;;;9.63;3.15;;;22.20;99.90;;;;;;5018898;28;20064;-78
2022/05/17 09:38:35;;;;;;;11.05;2.55;;;22.10;99.90;;;;;;5028592;28;20445;-77
2022/05/17 09:41:05;;;;;;;7.78;2.08;;;22.20;99.90;;;;;;5029504;28;20049;-78
2022/05/17 09:43:39;;;;;;;6.68;2.15;;;22.30;99.90;;;;;;5029147;28;20056;-78
2022/05/17 09:46:17;;;;;;;8.98;2.72;;;22.40;99.90;;;;;;5026802;28;20495;-78
2022/05/17 09:54:53;;;;;;;11.00;2.13;;;22.70;99.90;;;;;;5021184;28;20057;-77
2022/05/17 09:57:46;;;;;;;8.27;2.20;;;22.60;99.90;;;;;;5026976;28;20037;-78
2022/05/17 10:00:16;;;;;;;9.30;2.53;;;22.50;99.90;;;;;;5028775;28;20493;-78
2022/05/17 10:03:00;;;;;;;11.05;2.25;;;22.60;99.90;;;;;;5019704;28;20033;-78
2022/05/17 10:05:38;;;;;;;9.13;2.45;;;22.70;99.90;;;;;;5023932;28;20042;-78
2022/05/17 10:08:28;;;;;;;10.63;2.35;;;22.80;99.90;;;;;;5028756;28;20048;-78
2022/05/17 10:11:22;;;;;;;9.80;2.42;;;23.00;99.90;;;;;;5018181;28;20061;-78
2022/05/17 10:13:58;;;;;;;11.00;2.17;;;23.10;99.30;;;;;;5022569;28;20484;-78
2022/05/17 10:16:39;;;;;;;9.48;2.40;;;23.10;99.50;;;;;;5033575;28;20303;-77
2022/05/17 10:19:18;;;;;;;9.00;2.40;;;23.10;99.00;;;;;;5063843;28;20068;-78
2022/05/17 10:21:53;;;;;;;9.60;2.33;;;23.00;99.40;;;;;;5024799;28;20040;-78
2022/05/17 10:24:44;;;;;;;10.95;1.92;;;23.00;97.20;;;;;;5025656;28;20046;-78
2022/05/17 10:27:30;;;;;;;9.02;2.15;;;23.00;98.00;;;;;;5028261;28;20378;-78
2022/05/17 10:30:06;;;;;;;6.82;1.70;;;23.10;98.70;;;;;;5029354;28;20057;-78
2022/05/17 10:32:54;;;;;;;4.63;1.35;;;23.20;97.70;;;;;;5027916;28;20042;-77
2022/05/17 10:35:38;;;;;;;8.20;1.92;;;23.50;97.50;;;;;;5026220;28;20041;-78
2022/05/17 10:38:28;;;;;;;9.10;1.93;;;23.50;97.30;;;;;;5025406;28;20042;-78
2022/05/17 10:40:55;;;;;;;7.13;1.60;;;23.70;95.80;;;;;;5024282;28;20064;-78
2022/05/17 10:43:31;;;;;;;10.85;2.05;;;23.90;95.80;;;;;;5024714;28;20060;-79
2022/05/17 10:46:04;;;;;;;6.63;1.50;;;23.90;95.60;;;;;;5030492;28;20053;-78
2022/05/17 10:48:59;;;;;;;6.80;1.38;;;23.90;95.80;;;;;;5046358;28;20051;-76
2022/05/17 10:51:27;;;;;;;;;;;23.90;95.70;;;;;;5019928;28;20485;-78
2022/05/17 10:54:07;;;;;;;8.88;1.63;;;23.90;94.30;;;;;;5049040;28;19944;-78
2022/05/17 10:57:00;;;;;;;8.85;1.63;;;23.80;95.10;;;;;;5031399;28;20034;-77
2022/05/17 10:59:40;;;;;;;7.65;2.00;;;23.80;95.10;;;;;;5036005;28;20045;-76
2022/05/17 11:02:17;;;;;;;7.85;1.45;;;23.90;94.70;;;;;;5026782;28;20160;-76
2022/05/17 11:05:02;;;;;;;12.40;1.92;;;23.90;93.70;;;;;;5031502;28;20508;-76
2022/05/17 11:07:40;;;;;;;6.95;1.42;;;24.00;92.50;;;;;;5025589;28;20595;-76
2022/05/17 11:10:32;;;;;;;8.20;1.35;;;24.00;93.80;;;;;;5022746;28;20132;-76
2022/05/17 11:13:32;;;;;;;6.70;1.40;;;24.00;92.80;;;;;;5030281;28;20045;-76
2022/05/17 11:16:12;;;;;;;6.57;1.33;;;24.00;93.40;;;;;;5028255;28;20425;-76
2022/05/17 11:18:55;;;;;;;5.97;1.35;;;24.10;93.00;;;;;;5030626;28;20103;-76
2022/05/17 11:21:27;;;;;;;5.10;1.20;;;24.40;92.40;;;;;;5032286;28;20121;-76
2022/05/17 11:24:18;;;;;;;9.57;1.70;;;24.60;92.80;;;;;;5041976;28;20041;-75
2022/05/17 11:26:50;;;;;;;6.43;1.40;;;24.70;91.60;;;;;;5022931;28;20088;-76
2022/05/17 11:29:45;;;;;;;5.88;1.40;;;24.70;87.20;;;;;;5028134;28;20150;-76
2022/05/17 11:32:25;;;;;;;6.65;1.60;;;24.80;87.00;;;;;;5026899;28;20054;-76
2022/05/17 11:34:53;;;;;;;9.68;1.65;;;24.90;86.90;;;;;;5024638;28;20184;-76
2022/05/17 11:37:34;;;;;;;9.65;1.80;;;24.90;89.00;;;;;;5021810;28;20110;-76
2022/05/17 11:40:04;;;;;;;4.25;1.00;;;24.80;86.00;;;;;;5038613;28;20056;-74
2022/05/17 11:45:56;;;;;;;;;;;24.70;87.90;;;;;;4999204;28;20076;-77
2022/05/17 11:48:44;;;;;;;8.05;1.20;;;24.50;85.30;;;;;;5020320;28;19948;-77
2022/05/17 11:51:10;;;;;;;8.68;1.40;;;24.40;89.10;;;;;;5023799;28;20133;-77
2022/05/17 11:53:51;;;;;;;5.47;1.38;;;24.50;89.10;;;;;;5051183;28;20169;-77
2022/05/17 11:56:26;;;;;;;4.88;1.17;;;24.60;84.60;;;;;;5061428;28;21191;-77
2022/05/17 11:59:07;;;;;;;5.45;1.25;;;24.80;84.30;;;;;;5025731;28;20049;-77
2022/05/17 12:01:33;;;;;;;8.60;1.90;;;25.00;84.10;;;;;;5025493;28;20132;-77
2022/05/17 12:04:20;;;;;;;8.05;1.50;;;25.30;86.80;;;;;;5035494;28;20128;-77
2022/05/17 12:06:55;;;;;;;5.00;1.45;;;25.60;87.90;;;;;;5015570;28;20124;-77
2022/05/17 12:09:23;;;;;;;5.72;1.02;;;25.90;86.20;;;;;;5021652;28;20099;-77
2022/05/17 12:12:14;;;;;;;7.30;1.52;;;26.10;86.60;;;;;;5023281;28;20404;-77
2022/05/17 12:14:59;;;;;;;8.43;2.33;;;26.20;82.20;;;;;;5029192;28;20050;-77
2022/05/17 12:17:39;;;;;;;7.65;1.27;;;26.40;81.10;;;;;;5027727;28;20091;-77
2022/05/17 12:20:12;;;;;;;9.88;1.50;;;26.60;83.70;;;;;;5023635;28;20045;-77
2022/05/17 12:22:55;;;;;;;4.38;1.30;;;26.90;83.30;;;;;;5025870;28;20033;-77
2022/05/17 12:25:34;;;;;;;6.00;1.35;;;27.20;81.30;;;;;;5029735;28;20128;-77
2022/05/17 12:28:00;;;;;;;4.78;1.13;;;27.30;78.70;;;;;;5020291;28;20049;-74
2022/05/17 12:33:28;;;;;;;7.72;1.30;;;27.30;75.60;;;;;;5019905;28;20061;-78
2022/05/17 12:36:09;;;;;;;7.05;1.23;;;27.30;76.30;;;;;;5027126;28;20073;-78
2022/05/17 12:44:22;;;;;;;7.88;1.15;;;27.70;71.50;;;;;;5021160;28;20046;-75
2022/05/17 12:46:51;;;;;;;5.65;0.95;;;27.80;74.80;;;;;;5027765;28;20519;-80
2022/05/17 12:49:22;;;;;;;6.13;1.17;;;27.80;72.90;;;;;;5035835;28;20033;-73
2022/05/17 12:52:12;;;;;;;5.45;1.10;;;27.80;72.90;;;;;;5027424;28;20049;-76
2022/05/17 12:54:38;;;;;;;5.53;1.10;;;27.80;70.50;;;;;;5033164;28;20052;-77
2022/05/17 12:57:21;;;;;;;9.38;1.30;;;27.70;72.10;;;;;;5020860;28;20469;-78
2022/05/17 12:59:47;;;;;;;7.63;1.30;;;27.60;70.40;;;;;;5036284;28;20135;-76
2022/05/17 13:02:21;;;;;;;8.75;1.30;;;27.50;71.30;;;;;;5030443;28;20149;-76
2022/05/17 13:04:46;;;;;;;5.35;1.00;;;27.50;70.10;;;;;;5029605;28;20517;-77
2022/05/17 13:07:19;;;;;;;8.50;1.65;;;27.50;70.70;;;;;;5022981;28;20120;-74
2022/05/17 13:10:06;;;;;;;4.80;1.00;;;27.60;69.40;;;;;;5020279;28;20141;-77
2022/05/17 13:12:37;;;;;;;6.75;1.23;;;27.40;68.40;;;;;;5024611;28;20042;-78
2022/05/17 13:15:05;;;;;;;5.78;1.05;;;27.30;70.40;;;;;;5023791;28;20083;-77
2022/05/17 13:17:33;;;;;;;7.22;1.38;;;27.20;70.70;;;;;;5022065;28;20482;-76
2022/05/17 13:20:11;;;;;;;8.25;1.20;;;27.10;70.60;;;;;;5026437;28;20662;-79
2022/05/17 13:22:51;;;;;;;5.22;1.25;;;27.00;75.70;;;;;;5024573;28;20052;-73